createdAt,value
2023-10-04T00:01:03.291Z,101948.97
2023-10-04T00:06:06.040Z,101963.38
2023-10-04T00:11:15.644Z,101950.19
2023-10-04T00:16:19.526Z,101961.09
2023-10-04T00:21:23.203Z,101958.38
2023-10-04T00:26:26.290Z,101966.31
2023-10-04T00:31:30.056Z,101966.19
2023-10-04T00:36:33.199Z,101959.97
2023-10-04T00:41:36.728Z,101963.69
2023-10-04T00:46:43.485Z,101972.78
2023-10-04T00:51:47.714Z,101971.44
2023-10-04T00:56:53.088Z,101962.00
2023-10-04T01:01:56.029Z,101959.00
2023-10-04T01:23:06.082Z,101960.53
2023-10-04T01:28:14.107Z,101974.28
2023-10-04T01:33:17.534Z,101969.13
2023-10-04T01:38:33.704Z,101993.97
2023-10-04T01:43:36.736Z,101983.81
2023-10-04T01:48:41.482Z,101966.31
2023-10-04T01:53:44.261Z,101981.66
2023-10-04T01:58:50.132Z,101986.88
2023-10-04T02:03:55.211Z,101987.31
2023-10-04T02:08:58.577Z,101985.09
2023-10-04T02:14:01.544Z,101998.66
2023-10-04T02:19:05.021Z,101993.75
2023-10-04T02:24:11.250Z,102008.97
2023-10-04T02:29:14.425Z,101991.91
2023-10-04T02:34:20.661Z,102004.91
2023-10-04T02:39:25.700Z,102009.66
2023-10-04T02:44:28.800Z,101999.16
2023-10-04T02:49:31.670Z,101985.59
2023-10-04T02:54:35.102Z,102004.66
2023-10-04T02:59:37.916Z,102026.59
2023-10-04T03:04:42.677Z,102021.78
2023-10-04T03:09:45.458Z,102019.00
2023-10-04T03:14:48.309Z,102037.50
2023-10-04T03:19:53.117Z,102029.22
2023-10-04T03:24:56.016Z,102013.78
2023-10-04T03:30:00.129Z,102052.63
2023-10-04T03:35:09.030Z,102039.59
2023-10-04T03:40:16.386Z,102043.75
2023-10-04T03:45:21.995Z,102028.50
2023-10-04T03:50:25.804Z,102034.09
2023-10-04T03:55:28.619Z,102041.09
2023-10-04T04:00:33.807Z,102055.28
2023-10-04T04:05:43.116Z,102030.16
2023-10-04T04:10:47.672Z,102020.25
2023-10-04T04:15:50.543Z,102037.59
2023-10-04T04:20:55.646Z,102059.47
2023-10-04T04:26:08.104Z,102046.00
2023-10-04T04:31:22.120Z,102048.84
2023-10-04T04:36:29.315Z,102061.31
2023-10-04T04:41:39.895Z,102057.41
2023-10-04T04:46:44.713Z,102064.44
2023-10-04T04:51:48.738Z,102070.16
2023-10-04T04:56:51.629Z,102062.78
2023-10-04T05:01:57.280Z,102047.81
2023-10-04T05:07:00.437Z,102064.88
2023-10-04T05:12:03.182Z,102076.16
2023-10-04T05:17:05.928Z,102077.91
2023-10-04T05:22:08.840Z,102069.25
2023-10-04T05:27:11.727Z,102091.66
2023-10-04T05:32:14.626Z,102075.28
2023-10-04T05:37:17.425Z,102080.34
2023-10-04T05:42:20.122Z,102093.91
2023-10-04T05:47:22.788Z,102092.84
2023-10-04T05:52:25.616Z,102085.28
2023-10-04T05:57:30.014Z,102091.03
2023-10-04T06:02:33.631Z,102071.41
2023-10-04T06:07:36.774Z,102080.16
2023-10-04T06:12:41.210Z,102097.53
2023-10-04T06:17:47.472Z,102076.34
2023-10-04T06:22:51.147Z,102070.25
2023-10-04T06:27:55.649Z,102082.63
2023-10-04T06:33:01.240Z,102076.34
2023-10-04T06:38:08.013Z,102075.16
2023-10-04T06:43:11.513Z,102070.41
2023-10-04T06:48:15.702Z,102069.28
2023-10-04T06:53:18.784Z,102067.47
2023-10-04T06:58:22.785Z,102049.16
2023-10-04T07:03:28.012Z,102059.50
2023-10-04T07:08:36.946Z,102035.06
2023-10-04T07:13:40.827Z,102058.66
2023-10-04T07:18:43.948Z,102064.19
2023-10-04T07:23:47.652Z,102042.00
2023-10-04T07:28:50.742Z,102052.56
2023-10-04T07:33:53.645Z,102051.41
2023-10-04T07:38:56.666Z,102054.41
2023-10-04T07:43:59.496Z,102058.97
2023-10-04T07:49:03.203Z,102055.06
2023-10-04T07:54:08.889Z,102063.25
2023-10-04T07:59:11.865Z,102053.28
2023-10-04T08:04:14.818Z,102047.72
2023-10-04T08:09:17.881Z,102065.28
2023-10-04T08:14:22.640Z,102058.31
2023-10-04T08:19:25.474Z,102052.16
2023-10-04T08:24:28.513Z,102049.97
2023-10-04T08:29:35.572Z,102049.13
2023-10-04T08:34:38.767Z,102048.09
2023-10-04T08:39:42.036Z,102043.94
2023-10-04T08:44:45.049Z,102019.19
2023-10-04T08:49:56.861Z,102049.59
2023-10-04T08:55:09.433Z,102044.38
2023-10-04T09:00:28.972Z,102033.22
2023-10-04T09:05:34.878Z,102014.38
2023-10-04T09:10:40.654Z,102026.50
2023-10-04T09:15:43.553Z,102028.13
2023-10-04T09:20:46.977Z,102015.38
2023-10-04T09:25:54.555Z,102010.38
2023-10-04T09:31:10.261Z,102008.38
2023-10-04T09:36:36.383Z,101988.38
2023-10-04T09:41:49.399Z,102005.00
2023-10-04T09:46:58.583Z,102010.19
2023-10-04T09:52:02.722Z,101994.44
2023-10-04T09:57:11.438Z,101992.44
2023-10-04T10:02:17.067Z,101983.47
2023-10-04T10:07:26.925Z,101979.84
2023-10-04T10:12:33.543Z,101955.34
2023-10-04T10:17:37.184Z,101975.84
2023-10-04T10:23:01.835Z,101975.16
2023-10-04T10:28:06.173Z,101965.44
2023-10-04T10:33:08.885Z,101964.41
2023-10-04T10:38:30.691Z,101974.25
2023-10-04T10:43:36.896Z,101972.63
2023-10-04T10:48:39.950Z,101961.28
2023-10-04T10:53:42.795Z,101947.84
2023-10-04T10:58:50.173Z,101955.91
2023-10-04T11:03:52.879Z,101965.34
2023-10-04T11:08:57.208Z,101957.09
2023-10-04T11:14:00.837Z,101955.97
2023-10-04T11:19:05.111Z,101915.47
2023-10-04T11:24:11.164Z,101930.59
2023-10-04T11:29:14.611Z,101943.19
2023-10-04T11:34:18.626Z,101928.91
2023-10-04T11:39:24.214Z,101919.81
2023-10-04T11:44:27.177Z,101928.78
2023-10-04T11:49:33.852Z,101927.16
2023-10-04T11:54:45.806Z,101922.41
2023-10-04T11:59:48.511Z,101908.00
2023-10-04T12:04:51.525Z,101923.84
2023-10-04T12:09:54.333Z,101922.44
2023-10-04T12:14:57.176Z,101913.50
2023-10-04T12:20:00.185Z,101912.84
2023-10-04T12:25:03.109Z,101914.88
2023-10-04T12:30:07.161Z,101914.88
2023-10-04T12:35:12.312Z,101904.94
2023-10-04T12:40:25.292Z,101906.66
2023-10-04T12:45:33.318Z,101891.38
2023-10-04T12:50:36.767Z,101899.31
2023-10-04T12:55:39.625Z,101879.63
2023-10-04T13:00:45.656Z,101895.91
2023-10-04T13:05:48.704Z,101901.59
2023-10-04T13:10:51.451Z,101894.34
2023-10-04T13:15:54.740Z,101876.94
2023-10-04T13:20:57.597Z,101894.19
2023-10-04T13:26:00.389Z,101884.31
2023-10-04T13:31:04.466Z,101889.66
2023-10-04T13:36:07.331Z,101890.56
2023-10-04T13:41:16.520Z,101889.59
2023-10-04T13:46:19.694Z,101865.78
2023-10-04T13:51:25.936Z,101894.41
2023-10-04T13:56:28.939Z,101894.47
2023-10-04T14:01:31.945Z,101894.25
2023-10-04T14:06:34.910Z,101890.16
2023-10-04T14:11:37.667Z,101884.66
2023-10-04T14:16:43.621Z,101886.63
2023-10-04T14:21:46.545Z,101888.56
2023-10-04T14:26:53.582Z,101904.94
2023-10-04T14:31:56.488Z,101902.16
2023-10-04T14:36:59.397Z,101898.53
2023-10-04T14:42:06.395Z,101905.72
2023-10-04T14:47:09.629Z,101904.25
2023-10-04T14:52:13.614Z,101897.81
2023-10-04T14:57:16.485Z,101891.34
2023-10-04T15:02:20.028Z,101920.41
2023-10-04T15:07:23.087Z,101898.13
2023-10-04T15:12:25.898Z,101898.91
2023-10-04T15:17:28.725Z,101908.59
2023-10-04T15:22:37.497Z,101908.47
2023-10-04T15:28:07.460Z,101913.88
2023-10-04T15:33:10.505Z,101924.59
2023-10-04T15:38:13.499Z,101927.44
2023-10-04T15:43:18.775Z,101905.41
2023-10-04T15:48:21.696Z,101920.09
2023-10-04T15:53:25.930Z,101930.06
2023-10-04T15:58:28.976Z,101932.44
2023-10-04T16:03:32.694Z,101927.06
2023-10-04T16:08:36.521Z,101935.28
2023-10-04T16:13:39.329Z,101929.84
2023-10-04T16:18:42.507Z,101938.69
2023-10-04T16:23:45.508Z,101918.69
2023-10-04T16:28:48.667Z,101922.41
2023-10-04T16:33:51.749Z,101929.94
2023-10-04T16:38:54.649Z,101947.00
2023-10-04T16:43:57.342Z,101922.69
2023-10-04T16:49:00.301Z,101942.09
2023-10-04T16:54:04.437Z,101926.31
2023-10-04T16:59:07.810Z,101946.50
2023-10-04T17:04:11.313Z,101939.66
2023-10-04T17:09:14.251Z,101943.75
2023-10-04T17:14:17.129Z,101953.78
2023-10-04T17:19:20.611Z,101961.72
2023-10-04T17:24:23.529Z,101970.41
2023-10-04T17:29:26.540Z,101947.91
2023-10-04T17:34:29.441Z,101947.13
2023-10-04T17:39:32.724Z,101970.69
2023-10-04T17:44:35.604Z,101961.75
2023-10-04T17:49:38.610Z,101961.81
2023-10-04T17:54:41.672Z,101957.31
2023-10-04T17:59:44.682Z,101952.78
2023-10-04T18:04:47.754Z,101938.09
2023-10-04T18:09:50.606Z,101965.19
2023-10-04T18:14:53.659Z,101965.75
2023-10-04T18:19:57.109Z,101966.38
2023-10-04T18:24:59.964Z,101965.75
2023-10-04T18:30:02.912Z,101965.66
2023-10-04T18:35:06.830Z,101967.03
2023-10-04T18:40:11.211Z,101977.13
2023-10-04T18:45:14.381Z,101978.00
2023-10-04T18:50:18.910Z,101941.38
2023-10-04T18:55:21.897Z,101969.50
2023-10-04T19:00:26.567Z,101965.81
2023-10-04T19:05:30.035Z,101941.28
2023-10-04T19:10:32.698Z,101968.59
2023-10-04T19:15:35.742Z,101968.72
2023-10-04T19:20:38.898Z,101961.03
2023-10-04T19:25:41.710Z,101962.59
2023-10-04T19:30:44.988Z,101960.09
2023-10-04T19:35:47.873Z,101956.75
2023-10-04T19:40:52.336Z,101960.56
2023-10-04T19:45:55.817Z,101960.66
2023-10-04T19:50:58.767Z,101936.53
2023-10-04T19:56:01.631Z,101938.28
2023-10-04T20:01:04.748Z,101930.28
2023-10-04T20:06:11.079Z,101943.34
2023-10-04T20:11:14.020Z,101928.75
2023-10-04T20:16:18.106Z,101922.63
2023-10-04T20:21:20.964Z,101924.09
2023-10-04T20:26:24.030Z,101938.53
2023-10-04T20:31:26.950Z,101918.34
2023-10-04T20:36:29.888Z,101913.09
2023-10-04T20:41:33.441Z,101919.06
2023-10-04T20:46:36.546Z,101926.72
2023-10-04T20:51:39.895Z,101932.22
2023-10-04T20:56:43.029Z,101942.00
2023-10-04T21:01:45.858Z,101926.09
2023-10-04T21:06:48.742Z,101914.25
2023-10-04T21:11:51.969Z,101925.16
2023-10-04T21:16:55.032Z,101931.25
2023-10-04T21:21:58.192Z,101943.34
2023-10-04T21:27:02.853Z,101928.00
2023-10-04T21:32:06.036Z,101930.16
2023-10-04T21:37:11.683Z,101924.41
2023-10-04T21:42:16.942Z,101942.94
2023-10-04T21:47:28.448Z,101907.53
2023-10-04T21:52:33.074Z,101907.31
2023-10-04T21:57:35.812Z,101924.16
2023-10-04T22:02:38.636Z,101941.34
2023-10-04T22:07:43.862Z,101914.31
2023-10-04T22:12:47.270Z,101896.47
2023-10-04T22:17:51.198Z,101931.97
2023-10-04T22:22:54.234Z,101917.13
2023-10-04T22:27:56.898Z,101918.56
2023-10-04T22:32:59.741Z,101923.34
2023-10-04T22:38:03.047Z,101927.63
2023-10-04T22:43:09.184Z,101894.69
2023-10-04T22:48:11.995Z,101901.53
2023-10-04T22:53:15.678Z,101893.50
2023-10-04T22:58:18.511Z,101905.94
2023-10-04T23:03:34.127Z,101908.97
2023-10-04T23:08:46.701Z,101893.97
2023-10-04T23:13:52.476Z,101893.50
2023-10-04T23:18:55.357Z,101892.44
2023-10-04T23:24:10.390Z,101887.81
2023-10-04T23:29:14.844Z,101886.03
2023-10-04T23:34:19.065Z,101868.16
2023-10-04T23:39:30.858Z,101868.28
2023-10-04T23:44:33.885Z,101866.47
2023-10-04T23:49:40.157Z,101857.22
2023-10-04T23:54:46.569Z,101871.22
2023-10-04T23:59:52.448Z,101890.69
